createdAt,value
2023-03-24T00:01:26.095Z,15.45
2023-03-24T00:03:54.239Z,15.29
2023-03-24T00:06:23.450Z,15.28
2023-03-24T00:08:53.451Z,15.29
2023-03-24T00:11:21.671Z,15.43
2023-03-24T00:13:51.428Z,14.93
2023-03-24T00:16:21.920Z,15.20
2023-03-24T00:18:53.505Z,15.17
2023-03-24T00:21:24.787Z,15.17
2023-03-24T00:23:55.506Z,15.34
2023-03-24T00:26:25.226Z,15.37
2023-03-24T00:28:57.123Z,15.00
2023-03-24T00:31:26.814Z,14.98
2023-03-24T00:33:55.325Z,14.89
2023-03-24T00:36:26.025Z,15.15
2023-03-24T00:38:55.216Z,15.24
2023-03-24T00:41:25.129Z,15.35
2023-03-24T00:43:58.484Z,15.42
2023-03-24T00:46:30.830Z,15.19
2023-03-24T00:49:03.525Z,15.20
2023-03-24T00:51:34.234Z,15.26
2023-03-24T00:54:03.101Z,15.32
2023-03-24T00:56:34.469Z,15.14
2023-03-24T00:59:04.715Z,15.17
2023-03-24T01:01:36.594Z,15.36
2023-03-24T01:04:06.896Z,15.40
2023-03-24T01:06:36.573Z,15.43
2023-03-24T01:09:06.259Z,15.48
2023-03-24T01:11:40.344Z,15.50
2023-03-24T01:14:10.611Z,15.43
2023-03-24T01:16:38.718Z,15.47
2023-03-24T01:19:08.652Z,15.64
2023-03-24T01:21:39.384Z,15.58
2023-03-24T01:24:08.330Z,15.61
2023-03-24T01:26:36.579Z,15.63
2023-03-24T01:29:05.008Z,15.59
2023-03-24T01:31:37.883Z,15.57
2023-03-24T01:34:06.741Z,15.54
2023-03-24T01:36:35.539Z,15.55
2023-03-24T01:39:04.944Z,15.46
2023-03-24T01:41:36.360Z,15.52
2023-03-24T01:44:26.167Z,15.53
2023-03-24T01:46:56.881Z,15.56
2023-03-24T01:49:28.164Z,15.53
2023-03-24T01:51:59.439Z,15.48
2023-03-24T01:54:33.231Z,15.44
2023-03-24T01:57:06.409Z,15.34
2023-03-24T01:59:42.618Z,15.44
2023-03-24T02:02:25.174Z,15.47
2023-03-24T02:05:01.622Z,15.50
2023-03-24T02:07:42.954Z,15.54
2023-03-24T02:10:13.478Z,15.49
2023-03-24T02:12:42.763Z,15.49
2023-03-24T02:15:14.076Z,15.46
2023-03-24T02:18:01.696Z,15.45
2023-03-24T02:21:06.285Z,15.40
2023-03-24T02:24:07.974Z,15.46
2023-03-24T02:27:06.231Z,15.48
2023-03-24T02:30:06.643Z,15.42
2023-03-24T02:33:26.079Z,15.54
2023-03-24T02:36:28.296Z,15.45
2023-03-24T02:39:33.064Z,15.43
2023-03-24T02:42:21.223Z,15.41
2023-03-24T02:44:58.413Z,15.46
2023-03-24T02:47:36.366Z,15.52
2023-03-24T02:50:15.596Z,15.61
2023-03-24T02:52:49.462Z,15.61
2023-03-24T02:55:21.894Z,15.50
2023-03-24T02:57:56.905Z,15.69
2023-03-24T03:00:48.230Z,15.66
2023-03-24T03:03:41.707Z,15.70
2023-03-24T03:06:17.715Z,15.79
2023-03-24T03:08:48.582Z,15.92
2023-03-24T03:11:18.414Z,15.82
2023-03-24T03:13:54.382Z,15.87
2023-03-24T03:16:25.843Z,15.93
2023-03-24T03:18:58.239Z,15.95
2023-03-24T03:21:29.531Z,16.00
2023-03-24T03:24:03.270Z,16.02
2023-03-24T03:26:34.242Z,16.11
2023-03-24T03:29:09.543Z,16.02
2023-03-24T03:31:42.796Z,16.07
2023-03-24T03:34:34.268Z,16.03
2023-03-24T03:37:09.447Z,15.98
2023-03-24T03:39:42.297Z,15.87
2023-03-24T03:42:12.471Z,16.01
2023-03-24T03:44:42.777Z,16.10
2023-03-24T03:47:10.982Z,16.18
2023-03-24T03:49:43.752Z,16.07
2023-03-24T03:52:11.774Z,16.16
2023-03-24T03:54:42.434Z,16.09
2023-03-24T03:57:11.841Z,16.12
2023-03-24T03:59:53.968Z,16.06
2023-03-24T04:02:40.294Z,15.90
2023-03-24T04:05:26.074Z,15.94
2023-03-24T04:08:19.801Z,15.91
2023-03-24T04:11:12.001Z,16.04
2023-03-24T04:14:10.222Z,15.92
2023-03-24T04:16:59.463Z,16.04
2023-03-24T04:19:44.508Z,15.91
2023-03-24T04:22:26.859Z,16.08
2023-03-24T04:25:18.189Z,15.98
2023-03-24T04:27:57.183Z,16.11
2023-03-24T04:30:33.287Z,16.13
2023-03-24T04:33:06.803Z,16.20
2023-03-24T04:35:40.686Z,16.22
2023-03-24T04:38:27.643Z,16.24
2023-03-24T04:41:27.868Z,16.34
2023-03-24T04:44:08.465Z,16.30
2023-03-24T04:46:46.604Z,16.19
2023-03-24T04:49:20.466Z,16.23
2023-03-24T04:51:49.563Z,16.35
2023-03-24T04:54:29.847Z,16.33
2023-03-24T04:57:05.859Z,16.34
2023-03-24T04:59:46.230Z,16.38
2023-03-24T05:02:15.667Z,16.21
2023-03-24T05:04:52.693Z,16.33
2023-03-24T05:07:27.145Z,16.31
2023-03-24T05:09:58.908Z,16.39
2023-03-24T05:12:27.272Z,16.36
2023-03-24T05:15:13.939Z,16.34
2023-03-24T05:17:43.912Z,16.40
2023-03-24T05:20:15.136Z,16.29
2023-03-24T05:22:49.670Z,16.34
2023-03-24T05:25:17.828Z,16.06
2023-03-24T05:27:46.647Z,15.96
2023-03-24T05:30:21.271Z,15.79
2023-03-24T05:32:53.003Z,15.81
2023-03-24T05:35:22.634Z,15.76
2023-03-24T05:37:50.780Z,15.41
2023-03-24T05:40:22.169Z,15.43
2023-03-24T05:42:54.670Z,15.59
2023-03-24T05:45:27.230Z,15.60
2023-03-24T05:47:55.963Z,15.45
2023-03-24T05:50:37.378Z,15.39
2023-03-24T05:53:06.169Z,15.45
2023-03-24T05:55:58.723Z,15.46
2023-03-24T05:58:52.779Z,15.48
2023-03-24T06:01:21.649Z,15.23
2023-03-24T06:03:56.565Z,15.20
2023-03-24T06:06:28.811Z,15.10
2023-03-24T06:08:58.447Z,14.99
2023-03-24T06:11:28.417Z,15.01
2023-03-24T06:14:03.907Z,14.88
2023-03-24T06:16:42.691Z,14.69
2023-03-24T06:19:13.955Z,14.94
2023-03-24T06:22:03.378Z,14.77
2023-03-24T06:24:36.350Z,14.78
2023-03-24T06:27:10.644Z,15.04
2023-03-24T06:29:39.434Z,15.17
2023-03-24T06:32:08.034Z,15.26
2023-03-24T06:34:42.093Z,15.29
2023-03-24T06:37:20.261Z,15.27
2023-03-24T06:39:48.337Z,15.32
2023-03-24T06:42:19.012Z,15.25
2023-03-24T06:44:47.067Z,15.12
2023-03-24T06:47:17.355Z,15.08
2023-03-24T06:49:45.561Z,15.08
2023-03-24T06:52:13.678Z,15.15
2023-03-24T06:54:43.847Z,15.04
2023-03-24T06:57:11.836Z,15.10
2023-03-24T07:00:14.908Z,15.15
2023-03-24T07:02:57.351Z,15.09
2023-03-24T07:05:25.496Z,15.07
2023-03-24T07:08:27.963Z,15.04
2023-03-24T07:10:46.173Z,15.03
2023-03-24T07:13:14.384Z,15.19
2023-03-24T07:15:43.064Z,14.91
2023-03-24T07:18:13.604Z,14.99
2023-03-24T07:20:44.527Z,14.92
2023-03-24T07:23:15.906Z,15.01
2023-03-24T07:25:59.011Z,15.07
2023-03-24T07:28:50.399Z,15.00
2023-03-24T07:31:28.621Z,15.04
2023-03-24T07:34:02.226Z,15.08
2023-03-24T07:36:30.842Z,15.06
2023-03-24T07:38:59.895Z,14.74
2023-03-24T07:41:35.114Z,14.94
2023-03-24T07:44:07.748Z,14.86
2023-03-24T07:46:40.598Z,14.85
2023-03-24T07:49:19.030Z,14.75
2023-03-24T07:51:54.600Z,14.78
2023-03-24T07:54:41.445Z,14.71
2023-03-24T07:57:11.469Z,14.85
2023-03-24T07:59:40.154Z,14.89
2023-03-24T08:02:21.266Z,14.84
2023-03-24T08:04:58.164Z,14.80
2023-03-24T08:07:50.435Z,14.97
2023-03-24T08:10:18.673Z,14.91
2023-03-24T08:12:48.697Z,14.75
2023-03-24T08:15:19.070Z,14.90
2023-03-24T08:17:48.881Z,14.72
2023-03-24T08:20:17.849Z,14.95
2023-03-24T08:22:49.685Z,15.13
2023-03-24T08:25:19.377Z,15.01
2023-03-24T08:27:49.172Z,14.92
2023-03-24T08:30:18.999Z,14.74
2023-03-24T08:32:47.520Z,14.71
2023-03-24T08:35:17.494Z,14.82
2023-03-24T08:37:46.528Z,14.74
2023-03-24T08:40:19.200Z,14.60
2023-03-24T08:42:51.858Z,14.71
2023-03-24T08:45:22.294Z,14.71
2023-03-24T08:47:53.614Z,14.74
2023-03-24T08:50:26.255Z,14.69
2023-03-24T08:52:59.540Z,14.84
2023-03-24T08:55:30.279Z,14.93
2023-03-24T08:58:00.683Z,14.76
2023-03-24T09:00:31.440Z,14.98
2023-03-24T09:03:01.564Z,15.09
2023-03-24T09:05:41.422Z,15.15
2023-03-24T09:08:19.999Z,15.25
2023-03-24T09:10:48.059Z,15.04
2023-03-24T09:13:18.419Z,15.22
2023-03-24T09:15:49.992Z,15.20
2023-03-24T09:18:18.747Z,15.19
2023-03-24T09:20:47.381Z,15.25
2023-03-24T09:23:16.210Z,15.41
2023-03-24T09:25:44.009Z,15.37
2023-03-24T09:28:14.617Z,15.28
2023-03-24T09:30:46.242Z,15.34
2023-03-24T09:33:14.392Z,15.32
2023-03-24T09:35:42.939Z,15.41
2023-03-24T09:38:12.312Z,15.32
2023-03-24T09:40:42.580Z,15.48
2023-03-24T09:43:28.249Z,15.71
2023-03-24T09:46:00.040Z,15.55
2023-03-24T09:48:34.925Z,15.51
2023-03-24T09:51:07.215Z,15.70
2023-03-24T09:53:41.794Z,15.85
2023-03-24T09:56:18.888Z,15.96
2023-03-24T09:58:54.422Z,16.11
2023-03-24T10:01:23.659Z,16.46
2023-03-24T10:03:51.909Z,16.39
2023-03-24T10:06:26.026Z,16.73
2023-03-24T10:09:04.824Z,17.09
2023-03-24T10:11:39.336Z,16.95
2023-03-24T10:14:34.028Z,16.96
2023-03-24T10:17:14.617Z,17.07
2023-03-24T10:19:54.120Z,17.34
2023-03-24T10:22:32.576Z,17.03
2023-03-24T10:25:08.174Z,16.66
2023-03-24T10:27:41.048Z,17.04
2023-03-24T10:30:16.778Z,17.20
2023-03-24T10:32:47.174Z,17.18
2023-03-24T10:35:23.821Z,17.28
2023-03-24T10:37:53.085Z,17.17
2023-03-24T10:40:23.649Z,17.15
2023-03-24T10:43:06.987Z,17.12
2023-03-24T10:45:40.721Z,17.01
2023-03-24T10:48:10.657Z,17.54
2023-03-24T10:50:43.361Z,17.93
2023-03-24T10:53:18.595Z,17.84
2023-03-24T10:55:48.162Z,17.74
2023-03-24T10:58:22.216Z,17.62
2023-03-24T11:00:50.465Z,17.59
2023-03-24T11:03:28.525Z,17.79
2023-03-24T11:06:01.303Z,17.70
2023-03-24T11:08:35.593Z,17.67
2023-03-24T11:11:15.300Z,17.49
2023-03-24T11:13:56.693Z,17.48
2023-03-24T11:16:29.838Z,17.86
2023-03-24T11:19:02.197Z,18.25
2023-03-24T11:21:32.086Z,17.96
2023-03-24T11:24:03.704Z,17.94
2023-03-24T11:26:34.671Z,18.19
2023-03-24T11:29:07.558Z,18.29
2023-03-24T11:31:38.414Z,17.84
2023-03-24T11:34:13.689Z,18.69
2023-03-24T11:36:49.736Z,18.89
2023-03-24T11:39:20.616Z,19.11
2023-03-24T11:42:03.688Z,18.49
2023-03-24T11:44:46.678Z,18.25
2023-03-24T11:47:22.417Z,18.00
2023-03-24T11:49:58.072Z,17.75
2023-03-24T11:52:30.504Z,17.44
2023-03-24T11:54:58.610Z,17.67
2023-03-24T11:57:40.704Z,17.34
2023-03-24T12:00:20.143Z,17.22
2023-03-24T12:03:09.234Z,17.96
2023-03-24T12:05:42.616Z,17.53
2023-03-24T12:08:30.531Z,17.43
2023-03-24T12:11:19.496Z,17.24
2023-03-24T12:13:50.564Z,17.26
2023-03-24T12:16:32.311Z,17.33
2023-03-24T12:19:30.243Z,17.39
2023-03-24T12:22:10.906Z,17.49
2023-03-24T12:24:54.349Z,17.71
2023-03-24T12:27:30.623Z,17.68
2023-03-24T12:30:05.403Z,17.55
2023-03-24T12:32:41.595Z,17.71
2023-03-24T12:35:44.264Z,17.69
2023-03-24T12:38:31.495Z,17.32
2023-03-24T12:41:27.150Z,17.12
2023-03-24T12:44:13.693Z,17.35
2023-03-24T12:46:55.807Z,16.84
2023-03-24T12:49:43.196Z,16.76
2023-03-24T12:52:39.977Z,16.94
2023-03-24T12:55:18.417Z,17.33
2023-03-24T12:57:53.367Z,17.21
2023-03-24T13:00:28.087Z,17.22
2023-03-24T13:03:04.122Z,17.26
2023-03-24T13:05:35.258Z,17.60
2023-03-24T13:08:08.359Z,17.57
2023-03-24T13:10:41.221Z,17.22
2023-03-24T13:13:17.591Z,17.01
2023-03-24T13:15:54.875Z,17.29
2023-03-24T13:18:46.283Z,17.34
2023-03-24T13:21:18.224Z,17.33
2023-03-24T13:23:55.521Z,17.12
2023-03-24T13:26:38.858Z,17.16
2023-03-24T13:29:26.765Z,16.69
2023-03-24T13:32:05.994Z,14.89
2023-03-24T13:34:38.094Z,14.25
2023-03-24T13:37:16.374Z,14.10
2023-03-24T13:39:48.524Z,14.19
2023-03-24T13:42:34.747Z,14.20
2023-03-24T13:45:07.336Z,14.19
2023-03-24T13:48:06.092Z,14.10
2023-03-24T13:50:35.811Z,14.26
2023-03-24T13:53:14.154Z,14.48
2023-03-24T13:55:50.689Z,14.18
2023-03-24T13:58:23.240Z,14.05
2023-03-24T14:01:18.041Z,13.88
2023-03-24T14:03:47.775Z,14.27
2023-03-24T14:06:18.271Z,14.41
2023-03-24T14:09:01.829Z,14.25
2023-03-24T14:11:45.624Z,13.79
2023-03-24T14:14:25.634Z,13.90
2023-03-24T14:17:12.165Z,13.65
2023-03-24T14:19:42.436Z,13.70
2023-03-24T14:22:19.535Z,13.47
2023-03-24T14:25:01.976Z,13.42
2023-03-24T14:27:37.690Z,13.84
2023-03-24T14:30:22.654Z,13.80
2023-03-24T14:32:54.110Z,13.60
2023-03-24T14:35:26.421Z,13.61
2023-03-24T14:37:57.463Z,13.70
2023-03-24T14:40:29.681Z,13.59
2023-03-24T14:43:05.787Z,13.36
2023-03-24T14:45:43.180Z,13.86
2023-03-24T14:48:26.907Z,13.84
2023-03-24T14:50:56.414Z,13.79
2023-03-24T14:53:24.919Z,13.51
2023-03-24T14:55:56.355Z,13.56
2023-03-24T14:58:28.622Z,13.61
2023-03-24T15:01:07.647Z,13.55
2023-03-24T15:03:45.966Z,13.57
2023-03-24T15:06:16.306Z,13.42
2023-03-24T15:08:51.326Z,13.51
2023-03-24T15:11:24.312Z,13.61
2023-03-24T15:13:53.614Z,13.61
2023-03-24T15:16:26.438Z,13.68
2023-03-24T15:21:30.092Z,13.55
2023-03-24T15:24:01.044Z,13.67
2023-03-24T15:26:30.965Z,13.55
2023-03-24T15:29:00.903Z,13.63
2023-03-24T15:31:34.822Z,13.63
2023-03-24T15:34:08.274Z,13.75
2023-03-24T15:36:45.882Z,13.98
2023-03-24T15:39:21.845Z,13.57
2023-03-24T15:41:53.333Z,13.87
2023-03-24T15:44:22.491Z,14.13
2023-03-24T15:46:51.880Z,14.27
2023-03-24T15:49:25.058Z,14.17
2023-03-24T15:52:00.851Z,14.35
2023-03-24T15:54:45.760Z,14.30
2023-03-24T15:57:26.332Z,14.29
2023-03-24T16:00:21.745Z,14.10
2023-03-24T16:03:10.047Z,13.87
2023-03-24T16:05:48.678Z,13.78
2023-03-24T16:08:28.714Z,13.87
2023-03-24T16:10:59.933Z,14.31
2023-03-24T16:13:29.058Z,14.14
2023-03-24T16:16:01.325Z,14.39
2023-03-24T16:18:34.549Z,14.63
2023-03-24T16:21:04.116Z,14.72
2023-03-24T16:23:33.241Z,14.58
2023-03-24T16:26:01.609Z,14.25
2023-03-24T16:28:32.711Z,14.30
2023-03-24T16:31:04.778Z,14.34
2023-03-24T16:33:35.750Z,14.16
2023-03-24T16:36:04.577Z,14.07
2023-03-24T16:38:34.626Z,14.42
2023-03-24T16:41:03.646Z,14.25
2023-03-24T16:43:35.026Z,14.37
2023-03-24T16:46:05.839Z,14.55
2023-03-24T16:48:37.233Z,14.39
2023-03-24T16:51:08.060Z,14.33
2023-03-24T16:53:36.903Z,14.32
2023-03-24T16:56:12.774Z,14.50
2023-03-24T16:58:50.870Z,14.37
2023-03-24T17:01:30.156Z,14.41
2023-03-24T17:04:06.001Z,14.31
2023-03-24T17:06:42.263Z,14.43
2023-03-24T17:09:17.120Z,14.27
2023-03-24T17:11:46.805Z,14.11
2023-03-24T17:14:19.134Z,14.23
2023-03-24T17:16:55.035Z,14.20
2023-03-24T17:19:44.943Z,14.21
2023-03-24T17:22:17.599Z,14.14
2023-03-24T17:24:48.721Z,14.11
2023-03-24T17:27:21.552Z,14.07
2023-03-24T17:29:50.500Z,14.07
2023-03-24T17:32:19.914Z,14.07
2023-03-24T17:34:51.114Z,13.96
2023-03-24T17:37:29.219Z,13.78
2023-03-24T17:40:28.743Z,13.83
2023-03-24T17:42:57.870Z,13.70
2023-03-24T17:45:25.874Z,13.58
2023-03-24T17:47:55.478Z,13.66
2023-03-24T17:50:26.044Z,13.76
2023-03-24T17:52:54.172Z,13.84
2023-03-24T17:55:22.284Z,13.64
2023-03-24T17:57:50.305Z,13.50
2023-03-24T18:00:18.742Z,13.51
2023-03-24T18:02:49.004Z,13.35
2023-03-24T18:05:19.085Z,13.36
2023-03-24T18:07:48.802Z,13.38
2023-03-24T18:10:16.987Z,13.39
2023-03-24T18:12:45.286Z,13.31
2023-03-24T18:15:13.749Z,13.20
2023-03-24T18:17:43.340Z,13.11
2023-03-24T18:20:15.004Z,13.28
2023-03-24T18:22:44.710Z,13.26
2023-03-24T18:25:14.881Z,13.34
2023-03-24T18:27:43.822Z,13.35
2023-03-24T18:30:15.351Z,13.16
2023-03-24T18:32:43.992Z,13.24
2023-03-24T18:35:16.653Z,13.12
2023-03-24T18:37:45.092Z,13.15
2023-03-24T18:40:15.849Z,13.09
2023-03-24T18:42:44.070Z,13.18
2023-03-24T18:45:17.509Z,13.13
2023-03-24T18:47:46.497Z,12.98
2023-03-24T18:50:14.956Z,13.13
2023-03-24T18:52:42.984Z,13.15
2023-03-24T18:55:11.590Z,13.01
2023-03-24T18:57:41.916Z,12.78
2023-03-24T19:00:14.455Z,12.87
2023-03-24T19:02:43.171Z,12.87
2023-03-24T19:05:14.251Z,12.93
2023-03-24T19:07:42.283Z,12.64
2023-03-24T19:10:11.213Z,12.64
2023-03-24T19:12:41.020Z,12.80
2023-03-24T19:15:09.988Z,12.72
2023-03-24T19:17:40.307Z,12.76
2023-03-24T19:20:12.251Z,12.68
2023-03-24T19:22:42.732Z,12.77
2023-03-24T19:25:10.773Z,12.58
2023-03-24T19:27:40.056Z,12.56
2023-03-24T19:30:09.383Z,12.57
2023-03-24T19:32:37.611Z,12.44
2023-03-24T19:35:06.482Z,12.33
2023-03-24T19:37:35.003Z,12.36
2023-03-24T19:40:09.922Z,12.26
2023-03-24T19:42:52.702Z,12.25
2023-03-24T19:45:27.904Z,12.36
2023-03-24T19:47:56.047Z,12.31
2023-03-24T19:50:24.450Z,12.25
2023-03-24T19:52:52.791Z,12.28
2023-03-24T19:55:22.146Z,12.11
2023-03-24T19:57:52.126Z,12.06
2023-03-24T20:00:21.142Z,12.17
2023-03-24T20:02:49.820Z,12.11
2023-03-24T20:05:18.327Z,12.07
2023-03-24T20:07:47.122Z,12.01
2023-03-24T20:10:15.952Z,12.05
2023-03-24T20:12:53.510Z,11.94
2023-03-24T20:15:43.003Z,12.03
2023-03-24T20:18:11.567Z,11.98
2023-03-24T20:20:40.345Z,11.94
2023-03-24T20:23:10.759Z,11.91
2023-03-24T20:25:48.695Z,11.81
2023-03-24T20:28:26.687Z,11.90
2023-03-24T20:31:03.114Z,11.89
2023-03-24T20:33:36.773Z,11.76
2023-03-24T20:36:09.509Z,11.89
2023-03-24T20:38:39.618Z,11.86
2023-03-24T20:41:08.292Z,11.72
2023-03-24T20:43:38.912Z,11.81
2023-03-24T20:46:10.413Z,11.81
2023-03-24T20:48:38.670Z,11.77
2023-03-24T20:51:07.410Z,11.79
2023-03-24T20:53:36.778Z,11.78
2023-03-24T20:56:08.014Z,11.64
2023-03-24T20:58:39.638Z,11.73
2023-03-24T21:01:15.591Z,11.70
2023-03-24T21:03:43.897Z,11.63
2023-03-24T21:06:13.769Z,11.69
2023-03-24T21:08:45.937Z,11.54
2023-03-24T21:11:16.626Z,11.58
2023-03-24T21:13:46.707Z,11.63
2023-03-24T21:16:19.755Z,11.61
2023-03-24T21:18:50.125Z,11.59
2023-03-24T21:21:18.218Z,11.63
2023-03-24T21:23:46.077Z,11.59
2023-03-24T21:26:15.767Z,11.68
2023-03-24T21:28:46.524Z,11.59
2023-03-24T21:31:21.472Z,11.56
2023-03-24T21:33:49.821Z,11.55
2023-03-24T21:36:18.344Z,11.51
2023-03-24T21:38:51.721Z,11.50
2023-03-24T21:41:20.738Z,11.43
2023-03-24T21:43:51.361Z,11.37
2023-03-24T21:46:22.119Z,11.41
2023-03-24T21:48:52.116Z,11.46
2023-03-24T21:51:21.495Z,11.50
2023-03-24T21:53:49.383Z,11.57
2023-03-24T21:56:17.788Z,11.67
2023-03-24T21:58:46.357Z,11.49
2023-03-24T22:01:14.813Z,11.50
2023-03-24T22:03:44.182Z,11.60
2023-03-24T22:06:14.576Z,11.56
2023-03-24T22:08:44.139Z,11.54
2023-03-24T22:11:15.385Z,11.45
2023-03-24T22:13:43.390Z,11.45
2023-03-24T22:16:11.413Z,11.45
2023-03-24T22:18:39.333Z,11.42
2023-03-24T22:21:11.032Z,11.60
2023-03-24T22:23:42.437Z,11.59
2023-03-24T22:26:13.306Z,11.55
2023-03-24T22:28:42.197Z,11.63
2023-03-24T22:31:12.596Z,11.51
2023-03-24T22:33:40.769Z,11.59
2023-03-24T22:36:11.425Z,11.55
2023-03-24T22:38:39.920Z,11.58
2023-03-24T22:41:09.819Z,11.60
2023-03-24T22:43:39.603Z,11.61
2023-03-24T22:46:08.076Z,11.65
2023-03-24T22:48:36.110Z,11.64
2023-03-24T22:51:04.367Z,11.44
2023-03-24T22:53:33.544Z,11.25
2023-03-24T22:56:01.527Z,11.21
2023-03-24T22:58:29.346Z,11.13
2023-03-24T23:00:57.868Z,11.05
2023-03-24T23:03:25.860Z,11.15
2023-03-24T23:05:56.817Z,11.27
2023-03-24T23:08:24.856Z,11.11
2023-03-24T23:10:55.360Z,11.09
2023-03-24T23:13:23.561Z,11.09
2023-03-24T23:15:52.283Z,11.13
2023-03-24T23:18:21.480Z,11.03
2023-03-24T23:20:49.378Z,10.85
2023-03-24T23:23:17.684Z,10.91
2023-03-24T23:25:46.425Z,10.70
2023-03-24T23:28:16.098Z,10.62
2023-03-24T23:30:43.993Z,10.58
2023-03-24T23:33:14.962Z,10.71
2023-03-24T23:35:43.762Z,10.72
2023-03-24T23:38:11.687Z,10.51
2023-03-24T23:40:39.812Z,10.52
2023-03-24T23:43:07.730Z,10.49
2023-03-24T23:45:37.011Z,10.60
2023-03-24T23:48:05.656Z,10.54
2023-03-24T23:50:34.101Z,10.54
2023-03-24T23:53:01.975Z,10.43
2023-03-24T23:55:29.843Z,10.35
2023-03-24T23:57:57.754Z,10.32
